sensor_id;sensor_type;location;lat;lon;timestamp;temperature;humidity
24686;DHT22;12804;51.176;4.452;2024-02-23T00:00:11;5.40;99.90
24686;DHT22;12804;51.176;4.452;2024-02-23T00:02:38;5.40;99.90
24686;DHT22;12804;51.176;4.452;2024-02-23T00:05:04;5.40;99.90
24686;DHT22;12804;51.176;4.452;2024-02-23T00:07:30;5.40;99.90
24686;DHT22;12804;51.176;4.452;2024-02-23T00:09:56;5.40;99.90
24686;DHT22;12804;51.176;4.452;2024-02-23T00:12:22;5.40;99.90
24686;DHT22;12804;51.176;4.452;2024-02-23T00:14:47;5.40;99.90
24686;DHT22;12804;51.176;4.452;2024-02-23T00:17:13;5.40;99.90
24686;DHT22;12804;51.176;4.452;2024-02-23T00:19:39;5.40;99.90
24686;DHT22;12804;51.176;4.452;2024-02-23T00:22:05;5.40;99.90
24686;DHT22;12804;51.176;4.452;2024-02-23T00:24:31;5.40;99.90
24686;DHT22;12804;51.176;4.452;2024-02-23T00:26:56;5.40;99.90
24686;DHT22;12804;51.176;4.452;2024-02-23T00:29:22;5.40;99.90
24686;DHT22;12804;51.176;4.452;2024-02-23T00:31:49;5.40;99.90
24686;DHT22;12804;51.176;4.452;2024-02-23T00:34:16;5.50;99.90
24686;DHT22;12804;51.176;4.452;2024-02-23T00:36:42;5.50;99.90
24686;DHT22;12804;51.176;4.452;2024-02-23T00:39:10;5.50;99.90
24686;DHT22;12804;51.176;4.452;2024-02-23T00:41:36;5.60;99.90
24686;DHT22;12804;51.176;4.452;2024-02-23T00:44:05;5.70;99.90
24686;DHT22;12804;51.176;4.452;2024-02-23T00:46:31;5.70;99.90
24686;DHT22;12804;51.176;4.452;2024-02-23T00:48:57;5.70;99.90
24686;DHT22;12804;51.176;4.452;2024-02-23T00:51:23;5.70;99.90
24686;DHT22;12804;51.176;4.452;2024-02-23T00:53:49;5.70;99.90
24686;DHT22;12804;51.176;4.452;2024-02-23T00:56:15;5.70;99.90
24686;DHT22;12804;51.176;4.452;2024-02-23T00:58:40;5.70;99.90
24686;DHT22;12804;51.176;4.452;2024-02-23T01:01:06;5.80;99.90
24686;DHT22;12804;51.176;4.452;2024-02-23T01:03:32;5.70;99.90
24686;DHT22;12804;51.176;4.452;2024-02-23T01:05:58;5.80;99.90
24686;DHT22;12804;51.176;4.452;2024-02-23T01:08:24;5.80;99.90
24686;DHT22;12804;51.176;4.452;2024-02-23T01:10:50;5.80;99.90
24686;DHT22;12804;51.176;4.452;2024-02-23T01:13:16;5.90;99.90
24686;DHT22;12804;51.176;4.452;2024-02-23T01:15:42;5.90;99.90
24686;DHT22;12804;51.176;4.452;2024-02-23T01:18:08;5.80;99.90
24686;DHT22;12804;51.176;4.452;2024-02-23T01:20:34;5.80;99.90
24686;DHT22;12804;51.176;4.452;2024-02-23T01:23:00;5.80;99.90
24686;DHT22;12804;51.176;4.452;2024-02-23T01:25:26;5.80;99.90
24686;DHT22;12804;51.176;4.452;2024-02-23T01:27:52;5.70;99.90
24686;DHT22;12804;51.176;4.452;2024-02-23T01:30:18;5.60;99.90
24686;DHT22;12804;51.176;4.452;2024-02-23T01:32:45;5.50;99.90
24686;DHT22;12804;51.176;4.452;2024-02-23T01:35:11;5.40;99.90
24686;DHT22;12804;51.176;4.452;2024-02-23T01:37:37;5.30;99.90
24686;DHT22;12804;51.176;4.452;2024-02-23T01:40:03;5.20;99.90
24686;DHT22;12804;51.176;4.452;2024-02-23T01:42:29;5.20;99.90
24686;DHT22;12804;51.176;4.452;2024-02-23T01:44:55;5.20;99.90
24686;DHT22;12804;51.176;4.452;2024-02-23T01:47:28;5.20;99.90
24686;DHT22;12804;51.176;4.452;2024-02-23T01:49:55;5.20;99.90
24686;DHT22;12804;51.176;4.452;2024-02-23T01:52:22;5.20;99.90
24686;DHT22;12804;51.176;4.452;2024-02-23T01:54:47;5.20;99.90
24686;DHT22;12804;51.176;4.452;2024-02-23T01:57:14;5.10;99.90
24686;DHT22;12804;51.176;4.452;2024-02-23T01:59:40;5.10;99.90
24686;DHT22;12804;51.176;4.452;2024-02-23T02:02:06;5.10;99.90
24686;DHT22;12804;51.176;4.452;2024-02-23T02:04:32;5.10;99.90
24686;DHT22;12804;51.176;4.452;2024-02-23T02:06:59;5.10;99.90
24686;DHT22;12804;51.176;4.452;2024-02-23T02:09:26;5.10;99.90
24686;DHT22;12804;51.176;4.452;2024-02-23T02:11:52;5.00;99.90
24686;DHT22;12804;51.176;4.452;2024-02-23T02:14:18;5.10;99.90
24686;DHT22;12804;51.176;4.452;2024-02-23T02:16:45;5.10;99.90
24686;DHT22;12804;51.176;4.452;2024-02-23T02:19:11;5.10;99.90
24686;DHT22;12804;51.176;4.452;2024-02-23T02:21:37;5.20;99.90
24686;DHT22;12804;51.176;4.452;2024-02-23T02:24:04;5.20;99.90
24686;DHT22;12804;51.176;4.452;2024-02-23T02:26:30;5.20;99.90
24686;DHT22;12804;51.176;4.452;2024-02-23T02:28:56;5.20;99.90
24686;DHT22;12804;51.176;4.452;2024-02-23T02:31:22;5.20;99.90
24686;DHT22;12804;51.176;4.452;2024-02-23T02:33:48;5.20;99.90
24686;DHT22;12804;51.176;4.452;2024-02-23T02:36:14;5.20;99.90
24686;DHT22;12804;51.176;4.452;2024-02-23T02:38:40;5.20;99.90
24686;DHT22;12804;51.176;4.452;2024-02-23T02:41:06;5.30;99.90
24686;DHT22;12804;51.176;4.452;2024-02-23T02:43:32;5.30;99.90
24686;DHT22;12804;51.176;4.452;2024-02-23T02:45:59;5.40;99.90
24686;DHT22;12804;51.176;4.452;2024-02-23T02:48:25;5.40;99.90
24686;DHT22;12804;51.176;4.452;2024-02-23T02:50:51;5.40;99.90
24686;DHT22;12804;51.176;4.452;2024-02-23T02:53:17;5.40;99.90
24686;DHT22;12804;51.176;4.452;2024-02-23T02:55:44;5.50;99.90
24686;DHT22;12804;51.176;4.452;2024-02-23T02:58:11;5.50;99.90
24686;DHT22;12804;51.176;4.452;2024-02-23T03:00:37;5.50;99.90
24686;DHT22;12804;51.176;4.452;2024-02-23T03:03:03;5.50;99.90
24686;DHT22;12804;51.176;4.452;2024-02-23T03:05:29;5.50;99.90
24686;DHT22;12804;51.176;4.452;2024-02-23T03:07:55;5.40;99.90
24686;DHT22;12804;51.176;4.452;2024-02-23T03:10:21;5.40;99.90
24686;DHT22;12804;51.176;4.452;2024-02-23T03:12:46;5.40;99.90
24686;DHT22;12804;51.176;4.452;2024-02-23T03:15:12;5.40;99.90
24686;DHT22;12804;51.176;4.452;2024-02-23T03:17:38;5.40;99.90
24686;DHT22;12804;51.176;4.452;2024-02-23T03:20:05;5.40;99.90
24686;DHT22;12804;51.176;4.452;2024-02-23T03:22:35;5.40;99.90
24686;DHT22;12804;51.176;4.452;2024-02-23T03:25:05;5.40;99.90
24686;DHT22;12804;51.176;4.452;2024-02-23T03:27:36;5.40;99.90
24686;DHT22;12804;51.176;4.452;2024-02-23T03:30:06;5.40;99.90
24686;DHT22;12804;51.176;4.452;2024-02-23T03:32:34;5.40;99.90
24686;DHT22;12804;51.176;4.452;2024-02-23T03:35:05;5.40;99.90
24686;DHT22;12804;51.176;4.452;2024-02-23T03:37:31;5.40;99.90
24686;DHT22;12804;51.176;4.452;2024-02-23T03:39:57;5.30;99.90
24686;DHT22;12804;51.176;4.452;2024-02-23T03:42:23;5.40;99.90
24686;DHT22;12804;51.176;4.452;2024-02-23T03:44:49;5.40;99.90
24686;DHT22;12804;51.176;4.452;2024-02-23T03:47:15;5.40;99.90
24686;DHT22;12804;51.176;4.452;2024-02-23T03:49:41;5.40;99.90
24686;DHT22;12804;51.176;4.452;2024-02-23T03:52:07;5.50;99.90
24686;DHT22;12804;51.176;4.452;2024-02-23T03:54:33;5.50;99.90
24686;DHT22;12804;51.176;4.452;2024-02-23T03:56:59;5.50;99.90
24686;DHT22;12804;51.176;4.452;2024-02-23T03:59:24;5.50;99.90
24686;DHT22;12804;51.176;4.452;2024-02-23T04:01:50;5.60;99.90
24686;DHT22;12804;51.176;4.452;2024-02-23T04:04:17;5.60;99.90
24686;DHT22;12804;51.176;4.452;2024-02-23T04:06:42;5.60;99.90
24686;DHT22;12804;51.176;4.452;2024-02-23T04:09:08;5.70;99.90
24686;DHT22;12804;51.176;4.452;2024-02-23T04:11:34;5.70;99.90
24686;DHT22;12804;51.176;4.452;2024-02-23T04:14:00;5.70;99.90
24686;DHT22;12804;51.176;4.452;2024-02-23T04:16:27;5.70;99.90
24686;DHT22;12804;51.176;4.452;2024-02-23T04:18:53;5.80;99.90
24686;DHT22;12804;51.176;4.452;2024-02-23T04:21:19;5.80;99.90
24686;DHT22;12804;51.176;4.452;2024-02-23T04:23:46;5.80;99.90
24686;DHT22;12804;51.176;4.452;2024-02-23T04:26:13;5.80;99.90
24686;DHT22;12804;51.176;4.452;2024-02-23T04:28:42;5.80;99.90
24686;DHT22;12804;51.176;4.452;2024-02-23T04:31:09;5.80;99.90
24686;DHT22;12804;51.176;4.452;2024-02-23T04:33:36;5.80;99.90
24686;DHT22;12804;51.176;4.452;2024-02-23T04:36:03;5.80;99.90
24686;DHT22;12804;51.176;4.452;2024-02-23T04:38:30;5.80;99.90
24686;DHT22;12804;51.176;4.452;2024-02-23T04:40:56;5.70;99.90
24686;DHT22;12804;51.176;4.452;2024-02-23T04:43:23;5.70;99.90
24686;DHT22;12804;51.176;4.452;2024-02-23T04:45:49;5.80;99.90
24686;DHT22;12804;51.176;4.452;2024-02-23T04:48:15;5.80;99.90
24686;DHT22;12804;51.176;4.452;2024-02-23T04:50:40;5.80;99.90
24686;DHT22;12804;51.176;4.452;2024-02-23T04:53:06;5.80;99.90
24686;DHT22;12804;51.176;4.452;2024-02-23T04:55:33;5.80;99.90
24686;DHT22;12804;51.176;4.452;2024-02-23T04:57:59;5.80;99.90
24686;DHT22;12804;51.176;4.452;2024-02-23T05:00:25;5.80;99.90
24686;DHT22;12804;51.176;4.452;2024-02-23T05:03:01;5.80;99.90
24686;DHT22;12804;51.176;4.452;2024-02-23T05:05:32;5.90;99.90
24686;DHT22;12804;51.176;4.452;2024-02-23T05:07:58;5.80;99.90
24686;DHT22;12804;51.176;4.452;2024-02-23T05:10:24;5.80;99.90
24686;DHT22;12804;51.176;4.452;2024-02-23T05:12:50;5.80;99.90
24686;DHT22;12804;51.176;4.452;2024-02-23T05:15:15;5.80;99.90
24686;DHT22;12804;51.176;4.452;2024-02-23T05:17:42;5.80;99.90
24686;DHT22;12804;51.176;4.452;2024-02-23T05:20:08;5.80;99.90
24686;DHT22;12804;51.176;4.452;2024-02-23T05:22:39;5.80;99.90
24686;DHT22;12804;51.176;4.452;2024-02-23T05:25:06;5.80;99.90
24686;DHT22;12804;51.176;4.452;2024-02-23T05:27:32;5.80;99.90
24686;DHT22;12804;51.176;4.452;2024-02-23T05:29:58;5.80;99.90
24686;DHT22;12804;51.176;4.452;2024-02-23T05:32:24;5.80;99.90
24686;DHT22;12804;51.176;4.452;2024-02-23T05:34:50;5.80;99.90
24686;DHT22;12804;51.176;4.452;2024-02-23T05:37:18;5.90;99.90
24686;DHT22;12804;51.176;4.452;2024-02-23T05:39:44;5.90;99.90
24686;DHT22;12804;51.176;4.452;2024-02-23T05:42:12;5.90;99.90
24686;DHT22;12804;51.176;4.452;2024-02-23T05:44:39;6.00;99.90
24686;DHT22;12804;51.176;4.452;2024-02-23T05:47:05;5.90;99.90
24686;DHT22;12804;51.176;4.452;2024-02-23T05:49:35;6.00;99.90
24686;DHT22;12804;51.176;4.452;2024-02-23T05:52:01;6.00;99.90
24686;DHT22;12804;51.176;4.452;2024-02-23T05:54:27;6.00;99.90
24686;DHT22;12804;51.176;4.452;2024-02-23T05:56:53;6.00;99.90
24686;DHT22;12804;51.176;4.452;2024-02-23T05:59:18;6.00;99.90
24686;DHT22;12804;51.176;4.452;2024-02-23T06:01:44;6.00;99.90
24686;DHT22;12804;51.176;4.452;2024-02-23T06:04:10;6.00;99.90
24686;DHT22;12804;51.176;4.452;2024-02-23T06:06:36;6.00;99.90
24686;DHT22;12804;51.176;4.452;2024-02-23T06:09:06;6.00;99.90
24686;DHT22;12804;51.176;4.452;2024-02-23T06:11:32;6.10;99.90
24686;DHT22;12804;51.176;4.452;2024-02-23T06:13:58;6.10;99.90
24686;DHT22;12804;51.176;4.452;2024-02-23T06:16:23;6.00;99.90
24686;DHT22;12804;51.176;4.452;2024-02-23T06:18:49;6.00;99.90
24686;DHT22;12804;51.176;4.452;2024-02-23T06:21:17;6.00;99.90
24686;DHT22;12804;51.176;4.452;2024-02-23T06:23:44;6.00;99.90
24686;DHT22;12804;51.176;4.452;2024-02-23T06:26:10;6.00;99.90
24686;DHT22;12804;51.176;4.452;2024-02-23T06:28:36;6.00;99.90
24686;DHT22;12804;51.176;4.452;2024-02-23T06:31:07;6.00;99.90
24686;DHT22;12804;51.176;4.452;2024-02-23T06:33:33;6.00;99.90
24686;DHT22;12804;51.176;4.452;2024-02-23T06:35:59;6.00;99.90
24686;DHT22;12804;51.176;4.452;2024-02-23T06:38:26;6.00;99.90
24686;DHT22;12804;51.176;4.452;2024-02-23T06:40:52;6.00;99.90
24686;DHT22;12804;51.176;4.452;2024-02-23T06:43:18;6.10;99.90
24686;DHT22;12804;51.176;4.452;2024-02-23T06:45:44;6.10;99.90
24686;DHT22;12804;51.176;4.452;2024-02-23T06:48:10;6.10;99.90
24686;DHT22;12804;51.176;4.452;2024-02-23T06:50:36;6.10;99.90
24686;DHT22;12804;51.176;4.452;2024-02-23T06:53:02;6.10;99.90
24686;DHT22;12804;51.176;4.452;2024-02-23T06:55:28;6.10;99.90
24686;DHT22;12804;51.176;4.452;2024-02-23T06:57:54;6.10;99.90
24686;DHT22;12804;51.176;4.452;2024-02-23T07:00:21;6.10;99.90
24686;DHT22;12804;51.176;4.452;2024-02-23T07:02:50;6.10;99.90
24686;DHT22;12804;51.176;4.452;2024-02-23T07:05:15;6.20;99.90
24686;DHT22;12804;51.176;4.452;2024-02-23T07:07:41;6.20;99.90
24686;DHT22;12804;51.176;4.452;2024-02-23T07:10:08;6.20;99.90
24686;DHT22;12804;51.176;4.452;2024-02-23T07:12:35;6.10;99.90
24686;DHT22;12804;51.176;4.452;2024-02-23T07:15:01;6.20;99.90
24686;DHT22;12804;51.176;4.452;2024-02-23T07:17:27;6.20;99.90
24686;DHT22;12804;51.176;4.452;2024-02-23T07:19:54;6.30;99.90
24686;DHT22;12804;51.176;4.452;2024-02-23T07:22:21;6.20;99.90
24686;DHT22;12804;51.176;4.452;2024-02-23T07:24:47;6.30;99.90
24686;DHT22;12804;51.176;4.452;2024-02-23T07:27:15;6.40;99.90
24686;DHT22;12804;51.176;4.452;2024-02-23T07:29:40;6.30;99.90
24686;DHT22;12804;51.176;4.452;2024-02-23T07:32:06;6.30;99.90
24686;DHT22;12804;51.176;4.452;2024-02-23T07:34:32;6.30;99.90
24686;DHT22;12804;51.176;4.452;2024-02-23T07:36:58;6.40;99.90
24686;DHT22;12804;51.176;4.452;2024-02-23T07:39:24;6.50;99.90
24686;DHT22;12804;51.176;4.452;2024-02-23T07:41:50;6.50;99.90
24686;DHT22;12804;51.176;4.452;2024-02-23T07:44:16;6.60;99.90
24686;DHT22;12804;51.176;4.452;2024-02-23T07:46:41;6.60;99.90
24686;DHT22;12804;51.176;4.452;2024-02-23T07:49:09;6.60;99.90
24686;DHT22;12804;51.176;4.452;2024-02-23T07:51:35;6.70;99.90
24686;DHT22;12804;51.176;4.452;2024-02-23T07:54:01;6.70;99.90
24686;DHT22;12804;51.176;4.452;2024-02-23T07:56:27;6.70;99.90
24686;DHT22;12804;51.176;4.452;2024-02-23T07:58:54;6.70;99.90
24686;DHT22;12804;51.176;4.452;2024-02-23T08:01:20;6.70;99.90
24686;DHT22;12804;51.176;4.452;2024-02-23T08:03:46;6.70;99.90
24686;DHT22;12804;51.176;4.452;2024-02-23T08:06:11;6.70;99.90
24686;DHT22;12804;51.176;4.452;2024-02-23T08:08:38;6.80;99.90
24686;DHT22;12804;51.176;4.452;2024-02-23T08:11:05;6.80;99.90
24686;DHT22;12804;51.176;4.452;2024-02-23T08:13:31;6.70;99.90
24686;DHT22;12804;51.176;4.452;2024-02-23T08:16:00;6.80;99.90
24686;DHT22;12804;51.176;4.452;2024-02-23T08:18:25;6.60;99.90
24686;DHT22;12804;51.176;4.452;2024-02-23T08:20:52;6.40;99.90
24686;DHT22;12804;51.176;4.452;2024-02-23T08:23:18;6.30;99.90
24686;DHT22;12804;51.176;4.452;2024-02-23T08:25:48;6.10;99.90
24686;DHT22;12804;51.176;4.452;2024-02-23T08:28:14;6.10;99.90
24686;DHT22;12804;51.176;4.452;2024-02-23T08:30:40;6.00;99.90
24686;DHT22;12804;51.176;4.452;2024-02-23T08:33:05;6.00;99.90
24686;DHT22;12804;51.176;4.452;2024-02-23T08:35:31;6.10;99.90
24686;DHT22;12804;51.176;4.452;2024-02-23T08:37:58;6.00;99.90
24686;DHT22;12804;51.176;4.452;2024-02-23T08:40:24;6.00;99.90
24686;DHT22;12804;51.176;4.452;2024-02-23T08:42:50;6.10;99.90
24686;DHT22;12804;51.176;4.452;2024-02-23T08:45:16;6.10;99.90
24686;DHT22;12804;51.176;4.452;2024-02-23T08:47:41;6.10;99.90
24686;DHT22;12804;51.176;4.452;2024-02-23T08:50:07;6.00;99.90
24686;DHT22;12804;51.176;4.452;2024-02-23T08:52:33;6.10;99.90
24686;DHT22;12804;51.176;4.452;2024-02-23T08:54:59;6.10;99.90
24686;DHT22;12804;51.176;4.452;2024-02-23T08:57:27;6.00;99.90
24686;DHT22;12804;51.176;4.452;2024-02-23T08:59:53;6.00;99.90
24686;DHT22;12804;51.176;4.452;2024-02-23T09:02:19;6.10;99.90
24686;DHT22;12804;51.176;4.452;2024-02-23T09:04:48;6.10;99.90
24686;DHT22;12804;51.176;4.452;2024-02-23T09:07:14;6.10;99.90
24686;DHT22;12804;51.176;4.452;2024-02-23T09:09:40;6.20;99.90
24686;DHT22;12804;51.176;4.452;2024-02-23T09:12:06;6.30;99.90
24686;DHT22;12804;51.176;4.452;2024-02-23T09:14:36;6.30;99.90
24686;DHT22;12804;51.176;4.452;2024-02-23T09:17:04;6.30;99.90
24686;DHT22;12804;51.176;4.452;2024-02-23T09:19:31;6.30;99.90
24686;DHT22;12804;51.176;4.452;2024-02-23T09:21:57;6.30;99.90
24686;DHT22;12804;51.176;4.452;2024-02-23T09:24:23;6.40;99.90
24686;DHT22;12804;51.176;4.452;2024-02-23T09:26:48;6.40;99.90
24686;DHT22;12804;51.176;4.452;2024-02-23T09:29:14;6.50;99.90
24686;DHT22;12804;51.176;4.452;2024-02-23T09:31:40;6.50;99.90
24686;DHT22;12804;51.176;4.452;2024-02-23T09:34:06;6.50;99.90
24686;DHT22;12804;51.176;4.452;2024-02-23T09:36:32;6.50;99.90
24686;DHT22;12804;51.176;4.452;2024-02-23T09:38:58;6.50;99.90
24686;DHT22;12804;51.176;4.452;2024-02-23T09:41:24;6.70;99.90
24686;DHT22;12804;51.176;4.452;2024-02-23T09:43:50;6.70;99.90
24686;DHT22;12804;51.176;4.452;2024-02-23T09:46:17;6.90;99.90
24686;DHT22;12804;51.176;4.452;2024-02-23T09:48:47;7.00;99.90
24686;DHT22;12804;51.176;4.452;2024-02-23T09:51:15;7.20;99.90
24686;DHT22;12804;51.176;4.452;2024-02-23T09:53:41;7.20;99.90
24686;DHT22;12804;51.176;4.452;2024-02-23T09:56:09;7.20;99.90
24686;DHT22;12804;51.176;4.452;2024-02-23T09:58:39;7.20;99.90
24686;DHT22;12804;51.176;4.452;2024-02-23T10:01:07;7.30;99.90
24686;DHT22;12804;51.176;4.452;2024-02-23T10:03:37;7.30;99.90
24686;DHT22;12804;51.176;4.452;2024-02-23T10:06:04;7.40;99.90
24686;DHT22;12804;51.176;4.452;2024-02-23T10:08:30;7.30;99.90
24686;DHT22;12804;51.176;4.452;2024-02-23T10:10:56;7.30;99.90
24686;DHT22;12804;51.176;4.452;2024-02-23T10:13:23;7.30;99.90
24686;DHT22;12804;51.176;4.452;2024-02-23T10:15:53;7.50;99.90
24686;DHT22;12804;51.176;4.452;2024-02-23T10:18:19;7.30;99.90
24686;DHT22;12804;51.176;4.452;2024-02-23T10:20:48;7.30;99.90
24686;DHT22;12804;51.176;4.452;2024-02-23T10:23:16;7.40;99.90
24686;DHT22;12804;51.176;4.452;2024-02-23T10:25:41;7.50;99.90
24686;DHT22;12804;51.176;4.452;2024-02-23T10:28:08;7.60;99.90
24686;DHT22;12804;51.176;4.452;2024-02-23T10:30:36;7.40;99.90
24686;DHT22;12804;51.176;4.452;2024-02-23T10:33:05;7.40;99.90
24686;DHT22;12804;51.176;4.452;2024-02-23T10:35:32;7.50;99.90
24686;DHT22;12804;51.176;4.452;2024-02-23T10:38:01;7.50;99.90
24686;DHT22;12804;51.176;4.452;2024-02-23T10:40:30;7.70;99.90
24686;DHT22;12804;51.176;4.452;2024-02-23T10:43:01;7.80;99.90
24686;DHT22;12804;51.176;4.452;2024-02-23T10:45:29;7.80;99.90
24686;DHT22;12804;51.176;4.452;2024-02-23T10:47:55;7.80;99.90
24686;DHT22;12804;51.176;4.452;2024-02-23T10:50:23;7.80;99.90
24686;DHT22;12804;51.176;4.452;2024-02-23T10:52:50;7.70;99.90
24686;DHT22;12804;51.176;4.452;2024-02-23T10:55:16;7.60;99.90
24686;DHT22;12804;51.176;4.452;2024-02-23T10:57:43;7.80;99.90
24686;DHT22;12804;51.176;4.452;2024-02-23T11:00:10;7.80;99.90
24686;DHT22;12804;51.176;4.452;2024-02-23T11:02:44;7.90;99.90
24686;DHT22;12804;51.176;4.452;2024-02-23T11:05:12;7.90;99.90
24686;DHT22;12804;51.176;4.452;2024-02-23T11:07:39;7.90;99.90
24686;DHT22;12804;51.176;4.452;2024-02-23T11:10:06;7.90;99.90
24686;DHT22;12804;51.176;4.452;2024-02-23T11:12:33;8.10;99.90
24686;DHT22;12804;51.176;4.452;2024-02-23T11:15:00;8.30;99.90
24686;DHT22;12804;51.176;4.452;2024-02-23T11:17:28;8.30;99.90
24686;DHT22;12804;51.176;4.452;2024-02-23T11:19:55;8.30;99.90
24686;DHT22;12804;51.176;4.452;2024-02-23T11:22:32;8.50;99.90
24686;DHT22;12804;51.176;4.452;2024-02-23T11:25:06;8.70;99.90
24686;DHT22;12804;51.176;4.452;2024-02-23T11:27:37;9.00;99.90
24686;DHT22;12804;51.176;4.452;2024-02-23T11:30:05;9.50;93.40
24686;DHT22;12804;51.176;4.452;2024-02-23T11:32:38;9.80;81.00
24686;DHT22;12804;51.176;4.452;2024-02-23T11:35:10;9.90;75.30
24686;DHT22;12804;51.176;4.452;2024-02-23T11:37:51;10.00;71.30
24686;DHT22;12804;51.176;4.452;2024-02-23T11:40:22;9.60;76.70
24686;DHT22;12804;51.176;4.452;2024-02-23T11:42:48;9.80;57.30
24686;DHT22;12804;51.176;4.452;2024-02-23T11:45:14;9.70;67.50
24686;DHT22;12804;51.176;4.452;2024-02-23T11:47:40;9.30;79.90
24686;DHT22;12804;51.176;4.452;2024-02-23T11:50:09;9.10;91.30
24686;DHT22;12804;51.176;4.452;2024-02-23T11:52:38;9.20;94.60
24686;DHT22;12804;51.176;4.452;2024-02-23T11:55:05;9.20;91.10
24686;DHT22;12804;51.176;4.452;2024-02-23T11:57:34;9.40;92.20
24686;DHT22;12804;51.176;4.452;2024-02-23T12:00:04;9.40;78.70
24686;DHT22;12804;51.176;4.452;2024-02-23T12:02:34;9.20;95.70
24686;DHT22;12804;51.176;4.452;2024-02-23T12:05:00;9.00;93.50
24686;DHT22;12804;51.176;4.452;2024-02-23T12:07:31;9.00;97.60
24686;DHT22;12804;51.176;4.452;2024-02-23T12:09:58;9.10;92.50
24686;DHT22;12804;51.176;4.452;2024-02-23T12:12:25;8.80;95.80
24686;DHT22;12804;51.176;4.452;2024-02-23T12:14:52;8.70;99.90
24686;DHT22;12804;51.176;4.452;2024-02-23T12:17:18;9.00;96.20
24686;DHT22;12804;51.176;4.452;2024-02-23T12:19:43;9.20;85.50
24686;DHT22;12804;51.176;4.452;2024-02-23T12:22:12;9.30;82.20
24686;DHT22;12804;51.176;4.452;2024-02-23T12:24:40;9.20;84.60
24686;DHT22;12804;51.176;4.452;2024-02-23T12:27:07;9.20;84.30
24686;DHT22;12804;51.176;4.452;2024-02-23T12:29:33;9.10;92.90
24686;DHT22;12804;51.176;4.452;2024-02-23T12:32:06;9.00;97.90
24686;DHT22;12804;51.176;4.452;2024-02-23T12:34:32;9.20;96.00
24686;DHT22;12804;51.176;4.452;2024-02-23T12:36:58;9.30;94.10
24686;DHT22;12804;51.176;4.452;2024-02-23T12:39:24;9.50;48.00
24686;DHT22;12804;51.176;4.452;2024-02-23T12:41:50;9.30;44.70
24686;DHT22;12804;51.176;4.452;2024-02-23T12:44:16;9.30;52.80
24686;DHT22;12804;51.176;4.452;2024-02-23T12:46:42;9.50;49.00
24686;DHT22;12804;51.176;4.452;2024-02-23T12:49:08;9.30;48.10
24686;DHT22;12804;51.176;4.452;2024-02-23T12:51:34;9.20;47.10
24686;DHT22;12804;51.176;4.452;2024-02-23T12:54:00;9.10;34.10
24686;DHT22;12804;51.176;4.452;2024-02-23T12:56:26;9.20;23.90
24686;DHT22;12804;51.176;4.452;2024-02-23T12:58:52;9.30;42.00
24686;DHT22;12804;51.176;4.452;2024-02-23T13:01:19;9.20;21.50
24686;DHT22;12804;51.176;4.452;2024-02-23T13:03:47;9.20;15.60
24686;DHT22;12804;51.176;4.452;2024-02-23T13:06:13;9.20;35.70
24686;DHT22;12804;51.176;4.452;2024-02-23T13:08:39;9.10;43.40
24686;DHT22;12804;51.176;4.452;2024-02-23T13:11:06;9.20;6.00
24686;DHT22;12804;51.176;4.452;2024-02-23T13:13:32;9.10;21.90
24686;DHT22;12804;51.176;4.452;2024-02-23T13:15:58;9.10;12.80
24686;DHT22;12804;51.176;4.452;2024-02-23T13:18:24;9.20;15.50
24686;DHT22;12804;51.176;4.452;2024-02-23T13:20:50;9.50;6.10
24686;DHT22;12804;51.176;4.452;2024-02-23T13:23:16;9.40;1.00
24686;DHT22;12804;51.176;4.452;2024-02-23T13:25:43;9.10;32.90
24686;DHT22;12804;51.176;4.452;2024-02-23T13:28:09;9.20;28.90
24686;DHT22;12804;51.176;4.452;2024-02-23T13:30:36;9.00;28.80
24686;DHT22;12804;51.176;4.452;2024-02-23T13:33:02;8.90;41.10
24686;DHT22;12804;51.176;4.452;2024-02-23T13:35:28;8.90;60.10
24686;DHT22;12804;51.176;4.452;2024-02-23T13:37:55;9.10;53.50
24686;DHT22;12804;51.176;4.452;2024-02-23T13:40:21;9.00;46.90
24686;DHT22;12804;51.176;4.452;2024-02-23T13:42:49;8.90;23.60
24686;DHT22;12804;51.176;4.452;2024-02-23T13:45:16;9.00;7.60
24686;DHT22;12804;51.176;4.452;2024-02-23T13:47:57;9.10;8.00
24686;DHT22;12804;51.176;4.452;2024-02-23T13:50:23;9.20;1.00
24686;DHT22;12804;51.176;4.452;2024-02-23T13:52:49;9.10;1.00
24686;DHT22;12804;51.176;4.452;2024-02-23T13:55:16;9.00;1.00
24686;DHT22;12804;51.176;4.452;2024-02-23T13:57:41;9.00;1.00
24686;DHT22;12804;51.176;4.452;2024-02-23T14:00:08;9.20;1.00
24686;DHT22;12804;51.176;4.452;2024-02-23T14:02:39;9.10;1.00
24686;DHT22;12804;51.176;4.452;2024-02-23T14:05:07;9.20;1.00
24686;DHT22;12804;51.176;4.452;2024-02-23T14:07:34;9.40;1.00
24686;DHT22;12804;51.176;4.452;2024-02-23T14:10:01;9.40;1.00
24686;DHT22;12804;51.176;4.452;2024-02-23T14:12:28;9.60;1.00
24686;DHT22;12804;51.176;4.452;2024-02-23T14:14:54;9.60;1.00
24686;DHT22;12804;51.176;4.452;2024-02-23T14:17:20;9.70;1.00
24686;DHT22;12804;51.176;4.452;2024-02-23T14:19:46;9.80;1.00
24686;DHT22;12804;51.176;4.452;2024-02-23T14:22:12;9.70;1.00
24686;DHT22;12804;51.176;4.452;2024-02-23T14:24:38;9.70;1.00
24686;DHT22;12804;51.176;4.452;2024-02-23T14:27:04;9.90;1.00
24686;DHT22;12804;51.176;4.452;2024-02-23T14:29:30;9.30;1.00
24686;DHT22;12804;51.176;4.452;2024-02-23T14:31:56;9.20;1.00
24686;DHT22;12804;51.176;4.452;2024-02-23T14:34:22;9.20;1.00
24686;DHT22;12804;51.176;4.452;2024-02-23T14:36:49;9.20;1.00
24686;DHT22;12804;51.176;4.452;2024-02-23T14:39:16;9.20;1.00
24686;DHT22;12804;51.176;4.452;2024-02-23T14:41:42;9.30;1.00
24686;DHT22;12804;51.176;4.452;2024-02-23T14:44:08;9.30;1.00
24686;DHT22;12804;51.176;4.452;2024-02-23T14:46:34;9.30;1.00
24686;DHT22;12804;51.176;4.452;2024-02-23T14:49:00;9.10;1.00
24686;DHT22;12804;51.176;4.452;2024-02-23T14:51:26;9.10;1.00
24686;DHT22;12804;51.176;4.452;2024-02-23T14:53:52;9.10;1.00
24686;DHT22;12804;51.176;4.452;2024-02-23T14:56:18;9.20;1.00
24686;DHT22;12804;51.176;4.452;2024-02-23T14:58:44;9.20;1.00
24686;DHT22;12804;51.176;4.452;2024-02-23T15:01:10;9.20;1.00
24686;DHT22;12804;51.176;4.452;2024-02-23T15:03:36;9.10;1.00
24686;DHT22;12804;51.176;4.452;2024-02-23T15:06:02;9.20;1.00
24686;DHT22;12804;51.176;4.452;2024-02-23T15:08:28;9.20;1.00
24686;DHT22;12804;51.176;4.452;2024-02-23T15:10:54;9.20;1.00
24686;DHT22;12804;51.176;4.452;2024-02-23T15:13:21;9.20;1.00
24686;DHT22;12804;51.176;4.452;2024-02-23T15:15:47;9.50;1.00
24686;DHT22;12804;51.176;4.452;2024-02-23T15:18:12;9.60;1.00
24686;DHT22;12804;51.176;4.452;2024-02-23T15:20:38;9.70;1.00
24686;DHT22;12804;51.176;4.452;2024-02-23T15:23:04;9.80;1.00
24686;DHT22;12804;51.176;4.452;2024-02-23T15:25:30;9.90;1.00
24686;DHT22;12804;51.176;4.452;2024-02-23T15:27:56;9.80;1.00
24686;DHT22;12804;51.176;4.452;2024-02-23T15:30:26;9.60;1.00
24686;DHT22;12804;51.176;4.452;2024-02-23T15:32:52;9.60;1.00
24686;DHT22;12804;51.176;4.452;2024-02-23T15:35:17;9.30;1.00
24686;DHT22;12804;51.176;4.452;2024-02-23T15:37:43;9.00;1.00
24686;DHT22;12804;51.176;4.452;2024-02-23T15:40:09;8.90;1.00
24686;DHT22;12804;51.176;4.452;2024-02-23T15:42:36;8.90;1.00